sensor_id;sensor_type;location;lat;lon;timestamp;temperature;humidity
55121;DHT22;41019;48.512;9.036;2023-01-19T00:02:21;-1.10;97.10
55121;DHT22;41019;48.512;9.036;2023-01-19T00:04:47;-1.10;97.00
55121;DHT22;41019;48.512;9.036;2023-01-19T00:07:14;-1.10;97.10
55121;DHT22;41019;48.512;9.036;2023-01-19T00:09:40;-1.20;97.10
55121;DHT22;41019;48.512;9.036;2023-01-19T00:12:07;-1.20;97.20
55121;DHT22;41019;48.512;9.036;2023-01-19T00:14:33;-1.20;97.30
55121;DHT22;41019;48.512;9.036;2023-01-19T00:16:59;-1.20;97.60
55121;DHT22;41019;48.512;9.036;2023-01-19T00:19:27;-1.20;97.70
55121;DHT22;41019;48.512;9.036;2023-01-19T00:21:53;-1.20;97.70
55121;DHT22;41019;48.512;9.036;2023-01-19T00:24:19;-1.20;97.60
55121;DHT22;41019;48.512;9.036;2023-01-19T00:26:45;-1.30;97.70
55121;DHT22;41019;48.512;9.036;2023-01-19T00:29:13;-1.30;97.50
55121;DHT22;41019;48.512;9.036;2023-01-19T00:31:40;-1.30;97.50
55121;DHT22;41019;48.512;9.036;2023-01-19T00:34:06;-1.30;97.50
55121;DHT22;41019;48.512;9.036;2023-01-19T00:36:33;-1.30;97.50
55121;DHT22;41019;48.512;9.036;2023-01-19T00:38:59;-1.30;97.00
55121;DHT22;41019;48.512;9.036;2023-01-19T00:41:25;-1.40;97.10
55121;DHT22;41019;48.512;9.036;2023-01-19T00:44:11;-1.30;97.10
55121;DHT22;41019;48.512;9.036;2023-01-19T00:46:38;-1.40;97.20
55121;DHT22;41019;48.512;9.036;2023-01-19T00:49:04;-1.40;97.00
55121;DHT22;41019;48.512;9.036;2023-01-19T00:51:30;-1.40;97.20
55121;DHT22;41019;48.512;9.036;2023-01-19T00:53:57;-1.40;97.00
55121;DHT22;41019;48.512;9.036;2023-01-19T00:56:30;-1.50;97.00
55121;DHT22;41019;48.512;9.036;2023-01-19T00:58:56;-1.50;97.40
55121;DHT22;41019;48.512;9.036;2023-01-19T01:01:22;-1.50;97.40
55121;DHT22;41019;48.512;9.036;2023-01-19T01:03:48;-1.50;97.30
55121;DHT22;41019;48.512;9.036;2023-01-19T01:06:14;-1.50;97.30
55121;DHT22;41019;48.512;9.036;2023-01-19T01:08:40;-1.50;97.30
55121;DHT22;41019;48.512;9.036;2023-01-19T01:11:06;-1.60;97.00
55121;DHT22;41019;48.512;9.036;2023-01-19T01:13:32;-1.60;97.10
55121;DHT22;41019;48.512;9.036;2023-01-19T01:15:58;-1.60;96.90
55121;DHT22;41019;48.512;9.036;2023-01-19T01:18:24;-1.60;97.00
55121;DHT22;41019;48.512;9.036;2023-01-19T01:20:50;-1.60;97.10
55121;DHT22;41019;48.512;9.036;2023-01-19T01:23:16;-1.60;96.90
55121;DHT22;41019;48.512;9.036;2023-01-19T01:25:47;-1.70;97.30
55121;DHT22;41019;48.512;9.036;2023-01-19T01:28:13;-1.70;97.30
55121;DHT22;41019;48.512;9.036;2023-01-19T01:30:39;-1.70;97.40
55121;DHT22;41019;48.512;9.036;2023-01-19T01:33:08;-1.80;97.40
55121;DHT22;41019;48.512;9.036;2023-01-19T01:35:36;-1.80;97.60
55121;DHT22;41019;48.512;9.036;2023-01-19T01:38:03;-1.80;97.40
55121;DHT22;41019;48.512;9.036;2023-01-19T01:40:29;-1.80;97.60
55121;DHT22;41019;48.512;9.036;2023-01-19T01:42:54;-1.80;97.60
55121;DHT22;41019;48.512;9.036;2023-01-19T01:48:17;-1.80;97.30
55121;DHT22;41019;48.512;9.036;2023-01-19T01:50:56;-1.80;97.10
55121;DHT22;41019;48.512;9.036;2023-01-19T01:53:45;-1.80;97.20
55121;DHT22;41019;48.512;9.036;2023-01-19T01:56:18;-1.80;97.10
55121;DHT22;41019;48.512;9.036;2023-01-19T01:58:46;-1.80;97.20
55121;DHT22;41019;48.512;9.036;2023-01-19T02:01:12;-1.90;97.20
55121;DHT22;41019;48.512;9.036;2023-01-19T02:03:58;-1.90;97.00
55121;DHT22;41019;48.512;9.036;2023-01-19T02:06:25;-1.90;97.00
55121;DHT22;41019;48.512;9.036;2023-01-19T02:09:03;-1.90;97.00
55121;DHT22;41019;48.512;9.036;2023-01-19T02:11:50;-1.90;97.20
55121;DHT22;41019;48.512;9.036;2023-01-19T02:14:35;-2.00;97.40
55121;DHT22;41019;48.512;9.036;2023-01-19T02:17:05;-1.90;97.20
55121;DHT22;41019;48.512;9.036;2023-01-19T02:19:40;-2.00;97.30
55121;DHT22;41019;48.512;9.036;2023-01-19T02:22:39;-2.00;97.40
55121;DHT22;41019;48.512;9.036;2023-01-19T02:25:08;-2.10;97.20
55121;DHT22;41019;48.512;9.036;2023-01-19T02:27:34;-2.10;97.10
55121;DHT22;41019;48.512;9.036;2023-01-19T02:30:02;-2.20;97.30
55121;DHT22;41019;48.512;9.036;2023-01-19T02:32:28;-2.50;97.00
55121;DHT22;41019;48.512;9.036;2023-01-19T02:34:54;-2.20;97.00
55121;DHT22;41019;48.512;9.036;2023-01-19T02:37:21;-1.70;97.20
55121;DHT22;41019;48.512;9.036;2023-01-19T02:39:58;-2.20;97.10
55121;DHT22;41019;48.512;9.036;2023-01-19T02:42:36;-2.20;96.80
55121;DHT22;41019;48.512;9.036;2023-01-19T02:45:05;-2.20;96.90
55121;DHT22;41019;48.512;9.036;2023-01-19T02:47:45;-2.20;97.00
55121;DHT22;41019;48.512;9.036;2023-01-19T02:55:52;-2.30;96.80
55121;DHT22;41019;48.512;9.036;2023-01-19T02:58:44;-2.30;96.90
55121;DHT22;41019;48.512;9.036;2023-01-19T03:01:23;-2.30;97.00
55121;DHT22;41019;48.512;9.036;2023-01-19T03:04:03;-2.30;96.90
55121;DHT22;41019;48.512;9.036;2023-01-19T03:06:46;-2.30;97.10
55121;DHT22;41019;48.512;9.036;2023-01-19T03:09:47;-2.40;97.20
55121;DHT22;41019;48.512;9.036;2023-01-19T03:12:30;-2.30;97.30
55121;DHT22;41019;48.512;9.036;2023-01-19T03:15:03;-2.30;96.80
55121;DHT22;41019;48.512;9.036;2023-01-19T03:17:36;-2.40;97.10
55121;DHT22;41019;48.512;9.036;2023-01-19T03:20:06;-2.40;97.10
55121;DHT22;41019;48.512;9.036;2023-01-19T03:22:34;-2.40;96.90
55121;DHT22;41019;48.512;9.036;2023-01-19T03:25:00;-2.40;97.10
55121;DHT22;41019;48.512;9.036;2023-01-19T03:27:32;-2.40;97.10
55121;DHT22;41019;48.512;9.036;2023-01-19T03:30:11;-2.40;96.90
55121;DHT22;41019;48.512;9.036;2023-01-19T03:32:46;-2.40;97.10
55121;DHT22;41019;48.512;9.036;2023-01-19T03:35:15;-2.50;97.00
55121;DHT22;41019;48.512;9.036;2023-01-19T03:37:45;-2.40;97.10
55121;DHT22;41019;48.512;9.036;2023-01-19T03:40:13;-2.50;97.20
55121;DHT22;41019;48.512;9.036;2023-01-19T03:42:40;-2.50;97.50
55121;DHT22;41019;48.512;9.036;2023-01-19T03:45:08;-2.50;97.10
55121;DHT22;41019;48.512;9.036;2023-01-19T03:47:35;-2.50;97.00
55121;DHT22;41019;48.512;9.036;2023-01-19T03:50:06;-2.60;96.90
55121;DHT22;41019;48.512;9.036;2023-01-19T03:52:33;-2.60;97.00
55121;DHT22;41019;48.512;9.036;2023-01-19T03:55:01;-2.60;97.10
55121;DHT22;41019;48.512;9.036;2023-01-19T03:57:29;-2.60;97.10
55121;DHT22;41019;48.512;9.036;2023-01-19T03:59:55;-2.60;97.10
55121;DHT22;41019;48.512;9.036;2023-01-19T04:02:22;-2.60;96.80
55121;DHT22;41019;48.512;9.036;2023-01-19T04:04:48;-2.70;96.80
55121;DHT22;41019;48.512;9.036;2023-01-19T04:07:14;-2.70;97.10
55121;DHT22;41019;48.512;9.036;2023-01-19T04:09:40;-2.60;97.40
55121;DHT22;41019;48.512;9.036;2023-01-19T04:12:06;-2.60;97.50
55121;DHT22;41019;48.512;9.036;2023-01-19T04:14:32;-2.60;97.50
55121;DHT22;41019;48.512;9.036;2023-01-19T04:16:58;-2.60;97.30
55121;DHT22;41019;48.512;9.036;2023-01-19T04:19:24;-2.60;97.80
55121;DHT22;41019;48.512;9.036;2023-01-19T04:21:50;-2.60;97.70
55121;DHT22;41019;48.512;9.036;2023-01-19T04:24:17;-2.50;97.70
55121;DHT22;41019;48.512;9.036;2023-01-19T04:26:43;-2.50;97.60
55121;DHT22;41019;48.512;9.036;2023-01-19T04:29:09;-2.60;97.70
55121;DHT22;41019;48.512;9.036;2023-01-19T04:31:35;-2.50;97.90
55121;DHT22;41019;48.512;9.036;2023-01-19T04:34:02;-2.50;98.10
55121;DHT22;41019;48.512;9.036;2023-01-19T04:36:28;-2.50;97.70
55121;DHT22;41019;48.512;9.036;2023-01-19T04:38:54;-2.50;97.50
55121;DHT22;41019;48.512;9.036;2023-01-19T04:41:20;-2.50;97.40
55121;DHT22;41019;48.512;9.036;2023-01-19T04:43:46;-2.60;97.20
55121;DHT22;41019;48.512;9.036;2023-01-19T04:46:13;-2.50;97.30
55121;DHT22;41019;48.512;9.036;2023-01-19T04:48:39;-2.50;97.40
55121;DHT22;41019;48.512;9.036;2023-01-19T04:51:05;-2.60;97.60
55121;DHT22;41019;48.512;9.036;2023-01-19T04:53:31;-2.50;97.40
55121;DHT22;41019;48.512;9.036;2023-01-19T04:55:57;-2.50;97.80
55121;DHT22;41019;48.512;9.036;2023-01-19T04:58:24;-2.50;97.70
55121;DHT22;41019;48.512;9.036;2023-01-19T05:00:50;-2.50;97.40
55121;DHT22;41019;48.512;9.036;2023-01-19T05:03:18;-2.50;97.50
55121;DHT22;41019;48.512;9.036;2023-01-19T05:05:45;-2.50;97.40
55121;DHT22;41019;48.512;9.036;2023-01-19T05:08:11;-2.20;97.70
55121;DHT22;41019;48.512;9.036;2023-01-19T05:10:37;-2.50;97.40
55121;DHT22;41019;48.512;9.036;2023-01-19T05:13:03;-2.50;97.30
55121;DHT22;41019;48.512;9.036;2023-01-19T05:15:30;-2.50;97.40
55121;DHT22;41019;48.512;9.036;2023-01-19T05:17:56;-2.50;97.40
55121;DHT22;41019;48.512;9.036;2023-01-19T05:20:23;-2.50;97.10
55121;DHT22;41019;48.512;9.036;2023-01-19T05:22:50;-2.60;97.10
55121;DHT22;41019;48.512;9.036;2023-01-19T05:25:16;-2.50;97.10
55121;DHT22;41019;48.512;9.036;2023-01-19T05:27:42;-2.50;97.10
55121;DHT22;41019;48.512;9.036;2023-01-19T05:30:10;-2.60;97.10
55121;DHT22;41019;48.512;9.036;2023-01-19T05:32:36;-2.50;97.00
55121;DHT22;41019;48.512;9.036;2023-01-19T05:35:02;-2.50;97.10
55121;DHT22;41019;48.512;9.036;2023-01-19T05:37:29;-2.50;97.10
55121;DHT22;41019;48.512;9.036;2023-01-19T05:39:57;-2.60;96.90
55121;DHT22;41019;48.512;9.036;2023-01-19T05:42:23;-2.60;97.10
55121;DHT22;41019;48.512;9.036;2023-01-19T05:44:49;-2.60;96.90
55121;DHT22;41019;48.512;9.036;2023-01-19T05:47:15;-2.70;96.90
55121;DHT22;41019;48.512;9.036;2023-01-19T05:49:41;-2.70;96.80
55121;DHT22;41019;48.512;9.036;2023-01-19T05:52:07;-2.70;96.80
55121;DHT22;41019;48.512;9.036;2023-01-19T05:54:33;-2.80;96.90
55121;DHT22;41019;48.512;9.036;2023-01-19T05:56:59;-2.80;97.00
55121;DHT22;41019;48.512;9.036;2023-01-19T05:59:25;-2.80;97.00
55121;DHT22;41019;48.512;9.036;2023-01-19T06:01:52;-2.80;96.90
55121;DHT22;41019;48.512;9.036;2023-01-19T06:04:19;-2.80;97.10
55121;DHT22;41019;48.512;9.036;2023-01-19T06:06:48;-2.80;97.10
55121;DHT22;41019;48.512;9.036;2023-01-19T06:09:14;-2.80;97.00
55121;DHT22;41019;48.512;9.036;2023-01-19T06:11:42;-2.90;97.10
55121;DHT22;41019;48.512;9.036;2023-01-19T06:14:09;-2.90;97.00
55121;DHT22;41019;48.512;9.036;2023-01-19T06:16:35;-2.90;96.80
55121;DHT22;41019;48.512;9.036;2023-01-19T06:19:01;-2.90;96.80
55121;DHT22;41019;48.512;9.036;2023-01-19T06:21:27;-2.90;96.90
55121;DHT22;41019;48.512;9.036;2023-01-19T06:23:53;-2.90;97.00
55121;DHT22;41019;48.512;9.036;2023-01-19T06:26:19;-2.90;97.00
55121;DHT22;41019;48.512;9.036;2023-01-19T06:28:45;-3.00;96.80
55121;DHT22;41019;48.512;9.036;2023-01-19T06:31:11;-3.00;96.70
55121;DHT22;41019;48.512;9.036;2023-01-19T06:33:37;-3.00;96.60
55121;DHT22;41019;48.512;9.036;2023-01-19T06:36:03;-3.00;96.70
55121;DHT22;41019;48.512;9.036;2023-01-19T06:38:29;-3.00;96.70
55121;DHT22;41019;48.512;9.036;2023-01-19T06:40:56;-3.10;96.60
55121;DHT22;41019;48.512;9.036;2023-01-19T06:43:24;-3.10;96.60
55121;DHT22;41019;48.512;9.036;2023-01-19T06:45:51;-3.10;96.40
55121;DHT22;41019;48.512;9.036;2023-01-19T06:48:17;-3.10;96.70
55121;DHT22;41019;48.512;9.036;2023-01-19T06:50:47;-3.10;97.00
55121;DHT22;41019;48.512;9.036;2023-01-19T06:53:15;-3.10;97.10
55121;DHT22;41019;48.512;9.036;2023-01-19T06:55:42;-3.10;97.30
55121;DHT22;41019;48.512;9.036;2023-01-19T06:58:14;-3.10;97.00
55121;DHT22;41019;48.512;9.036;2023-01-19T07:00:40;-3.10;97.00
55121;DHT22;41019;48.512;9.036;2023-01-19T07:03:08;-3.10;97.00
55121;DHT22;41019;48.512;9.036;2023-01-19T07:05:41;-3.10;96.80
55121;DHT22;41019;48.512;9.036;2023-01-19T07:08:07;-3.10;96.70
55121;DHT22;41019;48.512;9.036;2023-01-19T07:10:33;-3.20;96.40
55121;DHT22;41019;48.512;9.036;2023-01-19T07:12:59;-3.20;96.40
55121;DHT22;41019;48.512;9.036;2023-01-19T07:15:25;-3.20;96.30
55121;DHT22;41019;48.512;9.036;2023-01-19T07:17:50;-3.20;96.40
55121;DHT22;41019;48.512;9.036;2023-01-19T07:20:16;-3.30;96.30
55121;DHT22;41019;48.512;9.036;2023-01-19T07:22:44;-3.30;96.50
55121;DHT22;41019;48.512;9.036;2023-01-19T07:25:12;-3.30;96.50
55121;DHT22;41019;48.512;9.036;2023-01-19T07:27:38;-3.30;96.60
55121;DHT22;41019;48.512;9.036;2023-01-19T07:30:06;-3.30;96.80
55121;DHT22;41019;48.512;9.036;2023-01-19T07:32:32;-3.30;96.50
55121;DHT22;41019;48.512;9.036;2023-01-19T07:34:58;-3.30;96.60
55121;DHT22;41019;48.512;9.036;2023-01-19T07:37:23;-3.30;96.50
55121;DHT22;41019;48.512;9.036;2023-01-19T07:39:49;-3.30;96.40
55121;DHT22;41019;48.512;9.036;2023-01-19T07:42:16;-3.30;96.30
55121;DHT22;41019;48.512;9.036;2023-01-19T07:44:41;-3.30;96.60
55121;DHT22;41019;48.512;9.036;2023-01-19T07:47:07;-3.30;96.70
55121;DHT22;41019;48.512;9.036;2023-01-19T07:49:37;-3.30;96.80
55121;DHT22;41019;48.512;9.036;2023-01-19T07:52:03;-3.30;97.10
55121;DHT22;41019;48.512;9.036;2023-01-19T07:54:29;-3.30;97.00
55121;DHT22;41019;48.512;9.036;2023-01-19T07:56:55;-3.20;96.80
55121;DHT22;41019;48.512;9.036;2023-01-19T07:59:22;-3.20;97.20
55121;DHT22;41019;48.512;9.036;2023-01-19T08:01:48;-3.20;97.40
55121;DHT22;41019;48.512;9.036;2023-01-19T08:04:13;-3.10;97.40
55121;DHT22;41019;48.512;9.036;2023-01-19T08:06:39;-3.10;97.00
55121;DHT22;41019;48.512;9.036;2023-01-19T08:09:08;-3.10;97.00
55121;DHT22;41019;48.512;9.036;2023-01-19T08:11:34;-3.00;97.00
55121;DHT22;41019;48.512;9.036;2023-01-19T08:14:00;-3.00;97.10
55121;DHT22;41019;48.512;9.036;2023-01-19T08:16:27;-2.90;97.10
55121;DHT22;41019;48.512;9.036;2023-01-19T08:18:52;-2.90;97.00
55121;DHT22;41019;48.512;9.036;2023-01-19T08:21:19;-2.80;97.10
55121;DHT22;41019;48.512;9.036;2023-01-19T08:23:51;-2.70;97.10
55121;DHT22;41019;48.512;9.036;2023-01-19T08:26:33;-2.60;96.90
55121;DHT22;41019;48.512;9.036;2023-01-19T08:29:03;-2.60;96.20
55121;DHT22;41019;48.512;9.036;2023-01-19T08:31:29;-2.50;95.90
55121;DHT22;41019;48.512;9.036;2023-01-19T08:33:55;-2.40;96.00
55121;DHT22;41019;48.512;9.036;2023-01-19T08:36:22;-2.40;96.10
55121;DHT22;41019;48.512;9.036;2023-01-19T08:38:49;-2.30;96.10
55121;DHT22;41019;48.512;9.036;2023-01-19T08:41:15;-2.10;96.00
55121;DHT22;41019;48.512;9.036;2023-01-19T08:43:41;-2.10;95.60
55121;DHT22;41019;48.512;9.036;2023-01-19T08:46:08;-2.00;95.50
55121;DHT22;41019;48.512;9.036;2023-01-19T08:48:34;-2.00;94.90
55121;DHT22;41019;48.512;9.036;2023-01-19T08:51:01;-1.80;94.90
55121;DHT22;41019;48.512;9.036;2023-01-19T08:53:27;-1.70;95.00
55121;DHT22;41019;48.512;9.036;2023-01-19T08:55:54;-1.50;94.30
55121;DHT22;41019;48.512;9.036;2023-01-19T08:58:22;-1.30;94.20
55121;DHT22;41019;48.512;9.036;2023-01-19T09:00:48;-1.20;93.60
55121;DHT22;41019;48.512;9.036;2023-01-19T09:03:18;-1.00;93.60
55121;DHT22;41019;48.512;9.036;2023-01-19T09:05:44;-0.90;93.80
55121;DHT22;41019;48.512;9.036;2023-01-19T09:08:12;-0.80;93.50
55121;DHT22;41019;48.512;9.036;2023-01-19T09:10:44;-0.80;94.00
55121;DHT22;41019;48.512;9.036;2023-01-19T09:13:11;-0.80;93.30
55121;DHT22;41019;48.512;9.036;2023-01-19T09:15:39;-0.70;93.10
55121;DHT22;41019;48.512;9.036;2023-01-19T09:18:07;-0.70;93.30
55121;DHT22;41019;48.512;9.036;2023-01-19T09:20:35;-0.70;93.00
55121;DHT22;41019;48.512;9.036;2023-01-19T09:23:04;-0.50;93.40
55121;DHT22;41019;48.512;9.036;2023-01-19T09:25:31;-0.50;92.70
55121;DHT22;41019;48.512;9.036;2023-01-19T09:28:00;-0.40;92.80
55121;DHT22;41019;48.512;9.036;2023-01-19T09:30:26;-0.30;92.60
55121;DHT22;41019;48.512;9.036;2023-01-19T09:32:52;-0.20;92.60
55121;DHT22;41019;48.512;9.036;2023-01-19T09:35:18;-0.20;92.30
55121;DHT22;41019;48.512;9.036;2023-01-19T09:37:47;0.00;92.10
55121;DHT22;41019;48.512;9.036;2023-01-19T09:40:17;0.10;91.50
55121;DHT22;41019;48.512;9.036;2023-01-19T09:42:54;0.20;91.80
55121;DHT22;41019;48.512;9.036;2023-01-19T09:45:33;0.30;91.40
55121;DHT22;41019;48.512;9.036;2023-01-19T09:48:03;0.40;91.10
55121;DHT22;41019;48.512;9.036;2023-01-19T09:50:38;0.50;90.60
55121;DHT22;41019;48.512;9.036;2023-01-19T09:53:48;0.50;90.40
55121;DHT22;41019;48.512;9.036;2023-01-19T09:56:14;0.50;91.10
55121;DHT22;41019;48.512;9.036;2023-01-19T09:58:41;0.50;91.60
55121;DHT22;41019;48.512;9.036;2023-01-19T10:01:45;0.50;91.30
55121;DHT22;41019;48.512;9.036;2023-01-19T10:04:27;0.50;91.60
55121;DHT22;41019;48.512;9.036;2023-01-19T10:07:17;0.50;90.80
55121;DHT22;41019;48.512;9.036;2023-01-19T10:12:45;0.50;92.30
55121;DHT22;41019;48.512;9.036;2023-01-19T10:20:27;0.50;92.20
55121;DHT22;41019;48.512;9.036;2023-01-19T10:22:56;0.40;92.60
55121;DHT22;41019;48.512;9.036;2023-01-19T10:25:23;0.40;91.90
55121;DHT22;41019;48.512;9.036;2023-01-19T10:27:49;0.40;91.90
55121;DHT22;41019;48.512;9.036;2023-01-19T10:30:22;0.50;92.70
55121;DHT22;41019;48.512;9.036;2023-01-19T10:32:52;0.70;92.20
55121;DHT22;41019;48.512;9.036;2023-01-19T10:35:21;0.60;92.20
55121;DHT22;41019;48.512;9.036;2023-01-19T10:37:55;0.70;92.30
55121;DHT22;41019;48.512;9.036;2023-01-19T10:40:52;0.70;92.20
55121;DHT22;41019;48.512;9.036;2023-01-19T10:43:41;0.70;91.80
55121;DHT22;41019;48.512;9.036;2023-01-19T10:46:49;0.80;91.30
55121;DHT22;41019;48.512;9.036;2023-01-19T10:51:54;1.00;92.30
55121;DHT22;41019;48.512;9.036;2023-01-19T10:54:21;1.00;92.20
55121;DHT22;41019;48.512;9.036;2023-01-19T10:56:57;1.10;91.80
55121;DHT22;41019;48.512;9.036;2023-01-19T10:59:45;1.10;91.80
55121;DHT22;41019;48.512;9.036;2023-01-19T11:02:29;1.20;91.70
55121;DHT22;41019;48.512;9.036;2023-01-19T11:05:20;1.20;91.30
55121;DHT22;41019;48.512;9.036;2023-01-19T11:07:46;1.30;91.20
55121;DHT22;41019;48.512;9.036;2023-01-19T11:12:46;1.40;90.70
55121;DHT22;41019;48.512;9.036;2023-01-19T11:15:32;1.50;91.10
55121;DHT22;41019;48.512;9.036;2023-01-19T11:18:02;1.50;90.70
55121;DHT22;41019;48.512;9.036;2023-01-19T11:20:39;1.60;90.90
55121;DHT22;41019;48.512;9.036;2023-01-19T11:23:26;1.60;90.50
55121;DHT22;41019;48.512;9.036;2023-01-19T11:25:57;1.60;90.80
55121;DHT22;41019;48.512;9.036;2023-01-19T11:28:32;1.70;90.90
55121;DHT22;41019;48.512;9.036;2023-01-19T11:31:16;1.80;90.90
55121;DHT22;41019;48.512;9.036;2023-01-19T11:36:17;1.90;90.20
55121;DHT22;41019;48.512;9.036;2023-01-19T11:38:48;1.90;90.50
55121;DHT22;41019;48.512;9.036;2023-01-19T11:41:41;1.90;90.70
55121;DHT22;41019;48.512;9.036;2023-01-19T11:47:01;1.80;90.70
55121;DHT22;41019;48.512;9.036;2023-01-19T11:49:58;1.80;90.60
55121;DHT22;41019;48.512;9.036;2023-01-19T11:52:38;1.80;90.70
55121;DHT22;41019;48.512;9.036;2023-01-19T11:55:40;1.80;89.50
55121;DHT22;41019;48.512;9.036;2023-01-19T11:58:14;1.90;90.20
55121;DHT22;41019;48.512;9.036;2023-01-19T12:04:06;2.00;90.20
55121;DHT22;41019;48.512;9.036;2023-01-19T12:06:41;2.20;88.80
55121;DHT22;41019;48.512;9.036;2023-01-19T12:11:47;2.30;88.70
55121;DHT22;41019;48.512;9.036;2023-01-19T12:14:22;2.40;88.40
55121;DHT22;41019;48.512;9.036;2023-01-19T12:16:56;2.50;90.00
55121;DHT22;41019;48.512;9.036;2023-01-19T12:22:23;2.50;90.80
55121;DHT22;41019;48.512;9.036;2023-01-19T12:25:04;2.50;90.60
55121;DHT22;41019;48.512;9.036;2023-01-19T12:27:42;2.60;90.90
55121;DHT22;41019;48.512;9.036;2023-01-19T12:30:28;2.60;90.50
55121;DHT22;41019;48.512;9.036;2023-01-19T12:33:31;2.70;90.50
55121;DHT22;41019;48.512;9.036;2023-01-19T12:36:04;2.70;90.50
55121;DHT22;41019;48.512;9.036;2023-01-19T12:38:43;2.80;90.00
55121;DHT22;41019;48.512;9.036;2023-01-19T12:41:37;2.80;90.10
55121;DHT22;41019;48.512;9.036;2023-01-19T12:46:44;2.80;90.00
55121;DHT22;41019;48.512;9.036;2023-01-19T12:49:27;2.90;90.40
55121;DHT22;41019;48.512;9.036;2023-01-19T12:57:48;3.00;89.30
55121;DHT22;41019;48.512;9.036;2023-01-19T13:13:36;3.20;90.20
55121;DHT22;41019;48.512;9.036;2023-01-19T13:18:51;3.20;90.20
55121;DHT22;41019;48.512;9.036;2023-01-19T13:24:10;3.20;90.20
55121;DHT22;41019;48.512;9.036;2023-01-19T13:26:53;3.10;90.20
55121;DHT22;41019;48.512;9.036;2023-01-19T13:31:52;3.00;89.30
55121;DHT22;41019;48.512;9.036;2023-01-19T13:34:25;3.00;89.80
55121;DHT22;41019;48.512;9.036;2023-01-19T13:36:55;3.00;90.10
55121;DHT22;41019;48.512;9.036;2023-01-19T13:39:35;3.00;90.40
55121;DHT22;41019;48.512;9.036;2023-01-19T13:42:14;3.00;89.00
55121;DHT22;41019;48.512;9.036;2023-01-19T13:44:47;3.00;89.10
55121;DHT22;41019;48.512;9.036;2023-01-19T13:47:22;2.90;90.40
55121;DHT22;41019;48.512;9.036;2023-01-19T13:49:57;2.90;90.50
55121;DHT22;41019;48.512;9.036;2023-01-19T13:52:24;2.80;90.80
55121;DHT22;41019;48.512;9.036;2023-01-19T13:55:01;2.80;90.40
55121;DHT22;41019;48.512;9.036;2023-01-19T13:57:31;2.80;90.80
55121;DHT22;41019;48.512;9.036;2023-01-19T14:00:24;2.70;91.40
55121;DHT22;41019;48.512;9.036;2023-01-19T14:05:30;2.70;91.60
55121;DHT22;41019;48.512;9.036;2023-01-19T14:08:01;2.70;91.90
55121;DHT22;41019;48.512;9.036;2023-01-19T14:10:28;2.70;91.90
55121;DHT22;41019;48.512;9.036;2023-01-19T14:13:03;2.70;92.70
55121;DHT22;41019;48.512;9.036;2023-01-19T14:15:32;2.70;92.40
55121;DHT22;41019;48.512;9.036;2023-01-19T14:26:01;2.70;92.80
55121;DHT22;41019;48.512;9.036;2023-01-19T14:28:43;2.60;92.70
55121;DHT22;41019;48.512;9.036;2023-01-19T14:31:23;2.60;92.70
55121;DHT22;41019;48.512;9.036;2023-01-19T14:33:53;2.70;92.40
55121;DHT22;41019;48.512;9.036;2023-01-19T14:36:48;2.60;92.30
55121;DHT22;41019;48.512;9.036;2023-01-19T14:39:22;2.60;92.60
55121;DHT22;41019;48.512;9.036;2023-01-19T14:41:51;2.60;92.10
55121;DHT22;41019;48.512;9.036;2023-01-19T14:44:37;2.60;92.00
55121;DHT22;41019;48.512;9.036;2023-01-19T14:47:05;2.60;92.70
55121;DHT22;41019;48.512;9.036;2023-01-19T14:49:46;2.60;93.50
55121;DHT22;41019;48.512;9.036;2023-01-19T14:54:54;2.60;94.10
55121;DHT22;41019;48.512;9.036;2023-01-19T14:57:22;2.60;94.30
55121;DHT22;41019;48.512;9.036;2023-01-19T14:59:48;2.60;94.30
55121;DHT22;41019;48.512;9.036;2023-01-19T15:02:16;2.60;94.60
55121;DHT22;41019;48.512;9.036;2023-01-19T15:04:44;2.60;94.80
55121;DHT22;41019;48.512;9.036;2023-01-19T15:07:17;2.60;94.90
55121;DHT22;41019;48.512;9.036;2023-01-19T15:09:47;2.60;94.80
55121;DHT22;41019;48.512;9.036;2023-01-19T15:12:16;2.60;95.10
55121;DHT22;41019;48.512;9.036;2023-01-19T15:14:42;2.50;94.30
55121;DHT22;41019;48.512;9.036;2023-01-19T15:17:16;2.50;95.20
55121;DHT22;41019;48.512;9.036;2023-01-19T15:19:42;2.50;95.10
55121;DHT22;41019;48.512;9.036;2023-01-19T15:22:10;2.50;95.10
55121;DHT22;41019;48.512;9.036;2023-01-19T15:24:37;2.50;95.50
55121;DHT22;41019;48.512;9.036;2023-01-19T15:27:10;2.40;95.40
55121;DHT22;41019;48.512;9.036;2023-01-19T15:29:37;2.50;95.40
55121;DHT22;41019;48.512;9.036;2023-01-19T15:32:09;2.40;95.00
55121;DHT22;41019;48.512;9.036;2023-01-19T15:34:36;2.40;94.60
55121;DHT22;41019;48.512;9.036;2023-01-19T15:37:02;2.40;95.30
55121;DHT22;41019;48.512;9.036;2023-01-19T15:39:28;2.40;95.40
55121;DHT22;41019;48.512;9.036;2023-01-19T15:41:54;2.40;95.60
55121;DHT22;41019;48.512;9.036;2023-01-19T15:44:20;2.40;94.30
55121;DHT22;41019;48.512;9.036;2023-01-19T15:46:46;2.30;95.00
55121;DHT22;41019;48.512;9.036;2023-01-19T15:49:11;2.30;94.90
55121;DHT22;41019;48.512;9.036;2023-01-19T15:51:37;2.30;94.70
55121;DHT22;41019;48.512;9.036;2023-01-19T15:54:03;2.30;94.50
55121;DHT22;41019;48.512;9.036;2023-01-19T15:56:30;2.30;93.90
55121;DHT22;41019;48.512;9.036;2023-01-19T15:58:57;2.30;94.00
55121;DHT22;41019;48.512;9.036;2023-01-19T16:01:26;2.30;94.20
55121;DHT22;41019;48.512;9.036;2023-01-19T16:04:01;2.30;93.90
55121;DHT22;41019;48.512;9.036;2023-01-19T16:06:28;2.30;94.10
55121;DHT22;41019;48.512;9.036;2023-01-19T16:08:55;2.20;94.40
55121;DHT22;41019;48.512;9.036;2023-01-19T16:11:25;2.20;93.50
55121;DHT22;41019;48.512;9.036;2023-01-19T16:13:51;2.20;93.40
55121;DHT22;41019;48.512;9.036;2023-01-19T16:16:20;2.20;93.60
55121;DHT22;41019;48.512;9.036;2023-01-19T16:18:46;2.20;93.30
55121;DHT22;41019;48.512;9.036;2023-01-19T16:21:12;2.20;93.40
55121;DHT22;41019;48.512;9.036;2023-01-19T16:23:38;2.20;93.50
55121;DHT22;41019;48.512;9.036;2023-01-19T16:26:19;2.20;93.80
55121;DHT22;41019;48.512;9.036;2023-01-19T16:28:46;2.10;94.80
55121;DHT22;41019;48.512;9.036;2023-01-19T16:31:12;2.10;95.30
55121;DHT22;41019;48.512;9.036;2023-01-19T16:33:40;2.10;94.80
55121;DHT22;41019;48.512;9.036;2023-01-19T16:36:19;2.10;94.60
55121;DHT22;41019;48.512;9.036;2023-01-19T16:38:45;2.10;94.40
55121;DHT22;41019;48.512;9.036;2023-01-19T16:41:11;2.10;93.90
55121;DHT22;41019;48.512;9.036;2023-01-19T16:43:37;2.10;94.60
55121;DHT22;41019;48.512;9.036;2023-01-19T16:46:03;2.10;95.20
55121;DHT22;41019;48.512;9.036;2023-01-19T16:48:29;2.10;95.80
55121;DHT22;41019;48.512;9.036;2023-01-19T16:51:05;2.00;95.80
55121;DHT22;41019;48.512;9.036;2023-01-19T16:53:32;2.00;96.00
55121;DHT22;41019;48.512;9.036;2023-01-19T16:56:08;2.00;96.20
55121;DHT22;41019;48.512;9.036;2023-01-19T16:58:34;2.00;96.20
55121;DHT22;41019;48.512;9.036;2023-01-19T17:01:11;2.00;96.10
55121;DHT22;41019;48.512;9.036;2023-01-19T17:03:52;2.00;96.30
55121;DHT22;41019;48.512;9.036;2023-01-19T17:06:20;2.00;96.50
55121;DHT22;41019;48.512;9.036;2023-01-19T17:08:50;2.00;96.60
55121;DHT22;41019;48.512;9.036;2023-01-19T17:11:20;2.00;96.40
55121;DHT22;41019;48.512;9.036;2023-01-19T17:13:52;2.00;96.40
55121;DHT22;41019;48.512;9.036;2023-01-19T17:16:19;2.00;96.30
55121;DHT22;41019;48.512;9.036;2023-01-19T17:18:45;2.00;96.50